Time;durP1;ratioP1;P1;durP2;ratioP2;P2;SDS_P1;SDS_P2;PMS_P1;PMS_P2;Temp;Humidity;BMP_temperature;BMP_pressure;BME280_temperature;BME280_humidity;BME280_pressure;Samples;Min_cycle;Max_cycle;Signal;HPM_P1;HPM_P2
2022/05/28 00:00:35;;;;;;;6.12;1.67;;;9.00;99.90;;;;;;7347912;32;20132;-59
2022/05/28 00:04:37;;;;;;;6.07;1.73;;;9.30;99.90;;;;;;7373119;32;20148;-59
2022/05/28 00:08:40;;;;;;;11.65;1.70;;;9.50;99.90;;;;;;7376078;32;20282;-59
2022/05/28 00:12:42;;;;;;;6.43;1.30;;;9.70;99.90;;;;;;7376906;32;20522;-59
2022/05/28 00:16:46;;;;;;;6.72;1.73;;;10.00;99.90;;;;;;7348894;32;20162;-60
2022/05/28 00:20:48;;;;;;;8.38;1.77;;;10.10;99.90;;;;;;7345140;32;20221;-60
2022/05/28 00:24:49;;;;;;;6.12;1.27;;;10.20;99.90;;;;;;7340342;32;20179;-58
2022/05/28 00:28:52;;;;;;;9.98;1.50;;;10.40;99.90;;;;;;7353963;32;20099;-58
2022/05/28 00:32:53;;;;;;;8.35;2.03;;;10.40;99.90;;;;;;7337822;32;20534;-57
2022/05/28 00:36:55;;;;;;;8.85;1.48;;;10.40;99.90;;;;;;7340119;32;20214;-58
2022/05/28 00:40:59;;;;;;;8.95;1.83;;;10.60;99.90;;;;;;7376168;32;20103;-58
2022/05/28 00:45:01;;;;;;;8.73;1.37;;;10.60;99.90;;;;;;7376685;32;20223;-58
2022/05/28 00:49:07;;;;;;;7.95;1.75;;;10.50;99.90;;;;;;7375821;32;20556;-58
2022/05/28 00:53:09;;;;;;;8.23;1.58;;;10.70;99.90;;;;;;7376249;32;20119;-58
2022/05/28 00:57:12;;;;;;;9.75;1.10;;;10.80;99.90;;;;;;7348450;32;20182;-58
2022/05/28 01:01:15;;;;;;;8.13;1.90;;;10.70;99.90;;;;;;7355260;32;20129;-58
2022/05/28 01:05:52;;;;;;;5.95;1.40;;;10.80;99.90;;;;;;7362405;32;20248;-58
2022/05/28 01:10:06;;;;;;;12.37;1.52;;;10.90;99.90;;;;;;7328841;32;20619;-58
2022/05/28 01:14:18;;;;;;;10.20;1.73;;;10.90;99.90;;;;;;7365597;32;20100;-59
2022/05/28 01:18:36;;;;;;;10.65;2.42;;;11.00;99.90;;;;;;7361726;32;20693;-58
2022/05/28 01:23:16;;;;;;;8.10;1.67;;;10.90;99.90;;;;;;7357558;32;20174;-58
2022/05/28 01:27:25;;;;;;;15.02;1.73;;;10.90;99.90;;;;;;7351545;32;20122;-58
2022/05/28 01:31:28;;;;;;;8.77;1.73;;;11.00;99.90;;;;;;7366195;32;20511;-58
2022/05/28 01:35:32;;;;;;;9.52;1.77;;;10.90;99.90;;;;;;7359388;32;20217;-58
2022/05/28 01:39:35;;;;;;;6.50;1.83;;;10.90;99.90;;;;;;7365011;32;20141;-58
2022/05/28 01:43:40;;;;;;;8.93;1.42;;;10.90;99.90;;;;;;7361592;32;20095;-58
2022/05/28 01:47:43;;;;;;;9.68;1.75;;;11.00;99.90;;;;;;7360466;32;20134;-58
2022/05/28 01:51:53;;;;;;;9.43;1.48;;;11.00;99.90;;;;;;7363471;32;20118;-58
2022/05/28 01:55:55;;;;;;;9.70;1.80;;;11.00;99.90;;;;;;7353369;32;20698;-57
2022/05/28 01:59:57;;;;;;;9.10;1.35;;;10.90;99.90;;;;;;7363102;32;20127;-58
2022/05/28 02:04:02;;;;;;;7.32;1.85;;;10.80;99.90;;;;;;7358950;32;20199;-58
2022/05/28 02:08:04;;;;;;;13.00;2.00;;;10.90;99.90;;;;;;7357910;32;20452;-58
2022/05/28 02:12:53;;;;;;;9.32;1.92;;;10.80;99.90;;;;;;7340740;32;20099;-58
2022/05/28 02:16:56;;;;;;;9.98;1.80;;;10.80;99.90;;;;;;7330506;32;20253;-58
2022/05/28 02:21:04;;;;;;;12.85;2.83;;;10.80;99.90;;;;;;7360248;32;20517;-58
2022/05/28 02:25:26;;;;;;;10.40;1.98;;;10.70;99.90;;;;;;7364929;32;20261;-59
2022/05/28 02:29:30;;;;;;;8.88;1.95;;;10.60;99.90;;;;;;7355122;32;20298;-58
2022/05/28 02:33:34;;;;;;;8.25;2.00;;;10.60;99.90;;;;;;7368348;32;20125;-58
2022/05/28 02:37:35;;;;;;;8.18;1.75;;;10.60;99.90;;;;;;7373720;32;20129;-58
2022/05/28 02:41:38;;;;;;;8.48;1.83;;;10.50;99.90;;;;;;7374354;32;20622;-58
2022/05/28 02:45:40;;;;;;;9.70;2.72;;;10.40;99.90;;;;;;7349675;32;20420;-58
2022/05/28 02:49:42;;;;;;;11.82;1.95;;;10.30;99.90;;;;;;7378829;32;20431;-58
2022/05/28 02:53:44;;;;;;;10.30;2.12;;;10.20;99.90;;;;;;7373513;32;20259;-58
2022/05/28 02:57:46;;;;;;;9.50;2.50;;;10.10;99.90;;;;;;7378724;32;20188;-58
2022/05/28 03:01:49;;;;;;;15.07;2.42;;;10.00;99.90;;;;;;7378361;32;20103;-59
2022/05/28 03:05:51;;;;;;;11.07;2.03;;;10.00;99.90;;;;;;7344588;32;20171;-58
2022/05/28 03:09:53;;;;;;;7.57;2.05;;;10.00;99.90;;;;;;7377279;32;20122;-58
2022/05/28 03:13:55;;;;;;;8.65;2.17;;;10.00;99.90;;;;;;7364517;32;20122;-58
2022/05/28 03:17:59;;;;;;;6.40;2.45;;;9.90;99.90;;;;;;7378194;32;20103;-58
2022/05/28 03:22:01;;;;;;;11.68;2.17;;;9.90;99.90;;;;;;7378540;32;20286;-58
2022/05/28 03:26:19;;;;;;;12.75;2.95;;;9.70;99.90;;;;;;7340178;32;20122;-58
2022/05/28 03:30:20;;;;;;;;;;;9.70;99.90;;;;;;7368921;32;20110;-58
2022/05/28 03:34:22;;;;;;;7.07;1.70;;;9.60;99.90;;;;;;7348933;32;20017;-58
2022/05/28 03:38:24;;;;;;;11.45;1.92;;;9.60;99.90;;;;;;7358778;32;20103;-58
2022/05/28 03:42:25;;;;;;;8.90;2.28;;;9.60;99.90;;;;;;7367563;32;20103;-58
2022/05/28 03:46:33;;;;;;;11.55;1.75;;;9.70;99.90;;;;;;7369528;32;20157;-58
2022/05/28 03:50:34;;;;;;;9.05;2.45;;;9.70;99.90;;;;;;7370896;32;20167;-58
2022/05/28 03:54:43;;;;;;;11.70;2.22;;;9.80;99.90;;;;;;7376108;32;20103;-58
2022/05/28 03:58:44;;;;;;;11.25;2.58;;;9.80;99.90;;;;;;7366331;32;20099;-58
2022/05/28 04:02:46;;;;;;;9.70;2.08;;;9.90;99.90;;;;;;7362679;32;20256;-58
2022/05/28 04:06:48;;;;;;;13.05;2.28;;;9.90;99.90;;;;;;7375269;32;20439;-58
2022/05/28 04:10:50;;;;;;;11.35;2.33;;;10.00;99.90;;;;;;7377007;32;20295;-58
2022/05/28 04:14:52;;;;;;;12.70;2.67;;;10.10;99.90;;;;;;7376887;32;20508;-58
2022/05/28 04:18:54;;;;;;;10.88;2.50;;;10.10;99.90;;;;;;7362466;32;20103;-58
2022/05/28 04:22:55;;;;;;;11.07;2.10;;;10.10;99.90;;;;;;7376559;32;20472;-58
2022/05/28 04:26:57;;;;;;;11.35;2.45;;;10.10;99.90;;;;;;7377476;32;20201;-58
2022/05/28 04:30:59;;;;;;;9.55;2.10;;;10.20;99.90;;;;;;7359848;32;20103;-58
2022/05/28 04:35:01;;;;;;;10.32;2.42;;;10.30;99.90;;;;;;7356145;32;20234;-57
2022/05/28 04:39:03;;;;;;;14.95;3.60;;;10.30;99.90;;;;;;7361359;32;20157;-58
2022/05/28 04:43:05;;;;;;;14.50;2.80;;;10.20;99.90;;;;;;7366444;32;20226;-58
2022/05/28 04:47:07;;;;;;;16.58;3.03;;;10.20;99.90;;;;;;7348688;32;20701;-58
2022/05/28 04:51:09;;;;;;;15.90;2.25;;;10.10;99.90;;;;;;7344954;32;20596;-57
2022/05/28 04:55:11;;;;;;;15.88;3.30;;;10.20;99.90;;;;;;7375085;32;20191;-58
2022/05/28 04:59:13;;;;;;;8.15;2.60;;;10.20;99.90;;;;;;7375197;32;20104;-57
2022/05/28 05:03:15;;;;;;;13.62;2.70;;;10.30;99.90;;;;;;7281620;32;20681;-58
2022/05/28 05:07:17;;;;;;;15.27;3.15;;;10.60;99.90;;;;;;7235938;32;20104;-63
2022/05/28 05:11:18;;;;;;;10.77;2.60;;;11.10;99.90;;;;;;7240387;32;20111;-62
2022/05/28 05:15:21;;;;;;;9.68;2.90;;;11.40;99.90;;;;;;7244117;32;20147;-60
2022/05/28 05:19:23;;;;;;;13.82;3.15;;;12.00;99.90;;;;;;7244584;32;20212;-61
2022/05/28 05:23:24;;;;;;;12.30;3.50;;;12.60;99.90;;;;;;7235145;32;20187;-61
2022/05/28 05:27:26;;;;;;;14.15;3.22;;;13.10;99.90;;;;;;7230487;32;20105;-61
2022/05/28 05:31:27;;;;;;;11.40;2.65;;;13.50;99.90;;;;;;7236149;32;20127;-60
2022/05/28 05:35:29;;;;;;;10.75;3.28;;;14.00;99.90;;;;;;7240964;32;20093;-66
2022/05/28 05:39:31;;;;;;;12.50;3.50;;;14.30;99.90;;;;;;7224360;32;20253;-62
2022/05/28 05:43:33;;;;;;;13.20;2.60;;;14.90;99.90;;;;;;7240000;32;20154;-62
2022/05/28 05:47:35;;;;;;;10.55;2.90;;;14.90;99.90;;;;;;7243130;32;20132;-62
2022/05/28 05:51:43;;;;;;;11.60;2.47;;;15.00;99.90;;;;;;7291906;32;20132;-65
2022/05/28 05:55:45;;;;;;;10.50;2.17;;;15.00;99.90;;;;;;7241001;32;20128;-65
2022/05/28 05:59:47;;;;;;;10.52;2.75;;;15.00;99.90;;;;;;7230340;32;20101;-62
2022/05/28 06:03:48;;;;;;;12.52;2.37;;;14.90;99.90;;;;;;7294689;32;20196;-61
2022/05/28 06:07:50;;;;;;;13.45;2.10;;;14.80;99.90;;;;;;7237501;32;20556;-62
2022/05/28 06:11:52;;;;;;;8.57;2.33;;;14.70;99.90;;;;;;7241264;32;20097;-60
2022/05/28 06:15:53;;;;;;;10.85;2.55;;;14.80;99.90;;;;;;7234830;32;20524;-61
2022/05/28 06:19:55;;;;;;;9.15;1.58;;;14.70;99.90;;;;;;7228593;32;20596;-60
2022/05/28 06:24:00;;;;;;;9.20;1.70;;;14.80;99.90;;;;;;7229028;32;20524;-60
2022/05/28 06:28:01;;;;;;;10.30;1.42;;;14.70;99.90;;;;;;7242648;32;20280;-61
2022/05/28 06:32:03;;;;;;;9.75;1.95;;;15.00;99.90;;;;;;7245724;32;20207;-61
2022/05/28 06:36:11;;;;;;;10.20;1.90;;;15.60;99.90;;;;;;7235505;32;20120;-56
2022/05/28 06:40:13;;;;;;;7.45;1.52;;;16.30;99.90;;;;;;7241458;32;20127;-57
2022/05/28 06:44:15;;;;;;;9.15;2.30;;;16.90;99.90;;;;;;7243298;32;20104;-57
2022/05/28 06:48:17;;;;;;;8.85;1.60;;;17.30;99.90;;;;;;7293930;32;20119;-58
2022/05/28 06:52:18;;;;;;;7.03;1.35;;;17.20;99.90;;;;;;7261113;32;20564;-58
2022/05/28 06:56:20;;;;;;;8.77;1.50;;;17.30;99.90;;;;;;7246449;32;20128;-58
2022/05/28 07:00:22;;;;;;;6.60;1.25;;;16.80;99.90;;;;;;7298396;32;20217;-59
2022/05/28 07:04:24;;;;;;;5.05;1.08;;;16.40;99.90;;;;;;7355889;32;20187;-59
2022/05/28 07:08:26;;;;;;;8.75;1.52;;;16.40;99.90;;;;;;7366271;32;20115;-58
2022/05/28 07:12:27;;;;;;;8.32;2.15;;;16.40;99.90;;;;;;7370616;32;20103;-63
2022/05/28 07:16:29;;;;;;;5.85;1.17;;;17.10;99.90;;;;;;7367420;32;20087;-64
2022/05/28 07:20:31;;;;;;;3.90;0.82;;;17.50;99.90;;;;;;7369126;32;20130;-63
2022/05/28 07:24:33;;;;;;;8.00;1.40;;;17.40;99.90;;;;;;7358997;32;20100;-63
2022/05/28 07:28:37;;;;;;;3.35;0.98;;;17.80;99.90;;;;;;7359617;32;20146;-64
2022/05/28 07:32:38;;;;;;;11.15;2.97;;;17.70;99.90;;;;;;7340539;32;20456;-63
2022/05/28 07:36:40;;;;;;;7.90;0.98;;;17.30;99.90;;;;;;7352136;32;20225;-63
2022/05/28 07:40:42;;;;;;;4.62;1.10;;;17.50;99.90;;;;;;7363799;32;20133;-63
2022/05/28 07:44:44;;;;;;;4.45;0.80;;;16.60;99.90;;;;;;7348734;32;20811;-63
2022/05/28 07:48:46;;;;;;;4.93;0.85;;;16.20;99.90;;;;;;7356061;32;20471;-64
2022/05/28 07:52:48;;;;;;;3.25;0.75;;;16.40;99.90;;;;;;7362166;32;20666;-64
2022/05/28 07:56:50;;;;;;;4.60;0.90;;;16.60;99.90;;;;;;7357979;32;20737;-64
2022/05/28 08:00:52;;;;;;;6.40;0.90;;;16.90;99.90;;;;;;7353669;32;20233;-64
2022/05/28 08:04:54;;;;;;;3.97;0.70;;;16.70;99.90;;;;;;7369102;32;20121;-65
2022/05/28 08:08:55;;;;;;;5.37;0.98;;;16.50;99.90;;;;;;7368112;32;20111;-63
2022/05/28 08:13:09;;;;;;;4.47;1.60;;;16.40;99.90;;;;;;7365027;32;20099;-63
2022/05/28 08:17:11;;;;;;;10.30;1.10;;;16.10;99.90;;;;;;7355380;32;20160;-63
2022/05/28 08:25:33;;;;;;;7.03;1.02;;;16.70;99.90;;;;;;7361154;32;20118;-64
2022/05/28 08:29:35;;;;;;;5.37;0.80;;;16.60;99.90;;;;;;7362245;32;20129;-64
2022/05/28 08:33:38;;;;;;;6.00;0.80;;;16.40;99.90;;;;;;7358334;32;20503;-64
2022/05/28 08:37:40;;;;;;;6.87;0.90;;;16.50;99.90;;;;;;7371230;32;20116;-64
2022/05/28 08:41:52;;;;;;;6.03;1.05;;;16.70;99.90;;;;;;7361924;32;20172;-64
2022/05/28 08:45:54;;;;;;;6.80;0.88;;;16.60;99.90;;;;;;7344838;32;20118;-63
2022/05/28 08:49:56;;;;;;;5.80;1.23;;;16.20;99.50;;;;;;7362164;32;20843;-65
2022/05/28 08:54:13;;;;;;;2.67;0.50;;;16.20;99.90;;;;;;7362652;32;20103;-63
2022/05/28 08:58:20;;;;;;;4.35;0.77;;;16.00;99.90;;;;;;7359204;32;20126;-64
2022/05/28 09:02:41;;;;;;;4.27;0.70;;;15.60;99.90;;;;;;7362021;32;20305;-62
2022/05/28 09:06:46;;;;;;;3.90;0.73;;;15.90;99.90;;;;;;7343099;32;20181;-65
2022/05/28 09:10:50;;;;;;;3.83;0.65;;;16.60;99.90;;;;;;7361697;32;20186;-64
2022/05/28 09:14:52;;;;;;;6.30;0.73;;;17.50;99.90;;;;;;7343687;32;21225;-64
2022/05/28 09:18:58;;;;;;;4.57;0.82;;;18.00;96.60;;;;;;7340607;32;20111;-63
2022/05/28 09:22:59;;;;;;;5.35;0.90;;;18.00;91.90;;;;;;7340488;32;20214;-63
2022/05/28 09:27:30;;;;;;;2.58;0.60;;;17.90;94.30;;;;;;7354086;32;20233;-64
2022/05/28 09:31:51;;;;;;;5.03;0.70;;;18.40;94.00;;;;;;7347173;32;20660;-62
2022/05/28 09:36:16;;;;;;;3.33;0.60;;;18.80;91.70;;;;;;7354521;32;20103;-63
2022/05/28 09:40:29;;;;;;;4.45;0.75;;;20.00;87.30;;;;;;7348018;32;20095;-63
2022/05/28 09:44:42;;;;;;;4.62;0.82;;;19.40;85.60;;;;;;7354934;32;20098;-63
2022/05/28 09:48:46;;;;;;;6.15;0.82;;;18.30;84.80;;;;;;7339896;32;20103;-65
2022/05/28 09:57:28;;;;;;;2.75;0.68;;;17.80;91.10;;;;;;7365232;32;20229;-64
2022/05/28 10:01:30;;;;;;;;;;;17.40;92.50;;;;;;7318769;32;20131;-64
2022/05/28 10:05:34;;;;;;;6.18;1.00;;;17.90;91.70;;;;;;7243837;32;20589;-63
2022/05/28 10:09:49;;;;;;;8.20;0.90;;;17.30;91.70;;;;;;7234416;32;20123;-64
2022/05/28 10:14:00;;;;;;;3.83;1.00;;;16.80;92.20;;;;;;7236685;32;20123;-64
2022/05/28 10:18:07;;;;;;;6.18;0.82;;;17.20;92.60;;;;;;7234748;32;20160;-64
2022/05/28 10:22:20;;;;;;;4.75;0.85;;;17.80;91.50;;;;;;7240206;32;20548;-65
2022/05/28 10:26:30;;;;;;;5.75;1.58;;;18.50;90.40;;;;;;7234789;32;20109;-65
2022/05/28 10:30:38;;;;;;;8.77;2.03;;;17.80;89.30;;;;;;7233064;32;20127;-65
2022/05/28 10:34:39;;;;;;;3.20;0.88;;;18.60;88.00;;;;;;7237779;32;20108;-65
2022/05/28 10:38:42;;;;;;;8.20;1.23;;;19.50;92.20;;;;;;7233545;32;20108;-62
2022/05/28 10:42:45;;;;;;;6.28;0.98;;;18.60;81.60;;;;;;7227431;32;20231;-61
2022/05/28 10:47:01;;;;;;;5.30;1.10;;;18.00;84.30;;;;;;7234344;32;20190;-62
2022/05/28 10:51:20;;;;;;;7.87;0.90;;;17.40;92.40;;;;;;7238231;32;20222;-62
2022/05/28 10:55:49;;;;;;;6.93;1.55;;;17.20;90.50;;;;;;7242609;32;20219;-62
2022/05/28 11:00:11;;;;;;;6.93;1.02;;;17.40;92.10;;;;;;7286983;32;20702;-61
2022/05/28 11:04:35;;;;;;;4.85;1.00;;;18.00;92.30;;;;;;7359501;32;20760;-61
2022/05/28 11:08:49;;;;;;;4.30;0.93;;;17.90;88.70;;;;;;7369362;32;20514;-60
2022/05/28 11:13:06;;;;;;;7.55;1.33;;;17.80;92.10;;;;;;7358030;32;20210;-61
2022/05/28 11:17:14;;;;;;;6.93;1.02;;;17.80;90.00;;;;;;7363100;32;20133;-61
2022/05/28 11:21:31;;;;;;;6.82;1.00;;;17.70;90.60;;;;;;7355481;32;20126;-62
2022/05/28 11:26:10;;;;;;;3.42;1.05;;;18.10;88.00;;;;;;7372543;32;20206;-61
2022/05/28 11:30:37;;;;;;;8.43;1.10;;;17.60;91.00;;;;;;7363420;32;20122;-61
2022/05/28 11:34:45;;;;;;;6.37;1.10;;;17.10;92.50;;;;;;7378915;32;20140;-62
2022/05/28 11:38:56;;;;;;;7.50;0.95;;;16.20;91.60;;;;;;7375958;32;20450;-60
2022/05/28 11:43:04;;;;;;;10.10;1.98;;;16.10;94.60;;;;;;7363308;32;20201;-61
2022/05/28 11:47:24;;;;;;;5.93;0.90;;;16.30;94.90;;;;;;7369323;32;20214;-61
2022/05/28 11:51:33;;;;;;;5.32;1.12;;;17.20;91.60;;;;;;7369679;32;20103;-62
2022/05/28 11:55:38;;;;;;;5.18;1.08;;;17.50;89.20;;;;;;7355607;32;20111;-62
2022/05/28 11:59:42;;;;;;;8.23;1.40;;;17.80;89.30;;;;;;7352942;32;20148;-62
2022/05/28 12:03:46;;;;;;;6.50;1.10;;;18.20;87.00;;;;;;7376090;32;20129;-62
2022/05/28 12:07:57;;;;;;;7.53;1.20;;;18.30;84.70;;;;;;7359728;32;20551;-61
2022/05/28 12:12:04;;;;;;;7.80;1.00;;;18.50;85.00;;;;;;7369931;32;20121;-62
2022/05/28 12:16:11;;;;;;;5.12;0.90;;;17.60;87.50;;;;;;7356290;32;20102;-62
2022/05/28 12:20:14;;;;;;;8.10;1.15;;;17.10;88.10;;;;;;7359643;32;20220;-61
2022/05/28 12:24:18;;;;;;;7.05;1.27;;;16.70;89.40;;;;;;7354985;32;20163;-62
2022/05/28 12:28:43;;;;;;;10.05;1.27;;;16.30;90.20;;;;;;7337745;32;20103;-62
2022/05/28 12:32:48;;;;;;;3.72;1.12;;;16.00;90.70;;;;;;7355510;32;20256;-57
2022/05/28 12:36:54;;;;;;;6.57;1.55;;;16.20;93.30;;;;;;7360365;32;20110;-56
2022/05/28 12:40:58;;;;;;;6.37;1.27;;;17.20;92.20;;;;;;7337686;32;20316;-57
2022/05/28 12:45:31;;;;;;;6.20;1.00;;;17.60;85.80;;;;;;7363195;32;20122;-57
2022/05/28 12:49:53;;;;;;;6.47;1.50;;;17.30;83.20;;;;;;7357579;32;20510;-63
2022/05/28 12:53:58;;;;;;;7.45;1.55;;;17.00;89.50;;;;;;7353547;32;20107;-63
2022/05/28 12:58:10;;;;;;;5.68;1.35;;;17.10;85.00;;;;;;7343185;32;20199;-63
2022/05/28 13:02:22;;;;;;;11.12;4.50;;;17.00;91.80;;;;;;7344168;32;20144;-63
2022/05/28 13:06:48;;;;;;;6.25;0.90;;;17.40;82.20;;;;;;7357321;32;20624;-62
2022/05/28 13:10:55;;;;;;;5.68;1.25;;;17.60;86.40;;;;;;7351405;32;20162;-63
2022/05/28 13:15:07;;;;;;;5.97;1.45;;;17.90;82.30;;;;;;7340721;32;20208;-63
2022/05/28 13:19:33;;;;;;;8.45;1.50;;;18.20;84.00;;;;;;7342758;32;20172;-58
2022/05/28 13:23:59;;;;;;;5.68;1.35;;;18.30;81.20;;;;;;7358547;32;20189;-58
2022/05/28 13:28:32;;;;;;;2.78;1.08;;;17.90;80.60;;;;;;7354312;32;20125;-58
2022/05/28 13:32:43;;;;;;;7.03;1.30;;;18.00;79.80;;;;;;7357597;32;20208;-58
2022/05/28 13:36:45;;;;;;;5.87;1.05;;;17.90;75.20;;;;;;7368217;32;20552;-66
2022/05/28 13:40:48;;;;;;;6.07;1.12;;;18.20;79.00;;;;;;7347086;32;20111;-64
2022/05/28 13:44:52;;;;;;;7.65;1.30;;;18.10;80.00;;;;;;7362213;32;20156;-63
2022/05/28 13:49:00;;;;;;;12.25;1.42;;;18.60;82.30;;;;;;7366321;32;20194;-64
2022/05/28 13:53:02;;;;;;;6.00;1.35;;;18.70;79.70;;;;;;7352209;32;20108;-66
2022/05/28 13:57:06;;;;;;;9.38;1.37;;;18.60;77.20;;;;;;7354481;32;20182;-65
2022/05/28 14:01:23;;;;;;;6.45;1.40;;;18.10;77.70;;;;;;7350373;32;20133;-64
2022/05/28 14:05:41;;;;;;;6.20;1.27;;;17.80;80.10;;;;;;7358531;32;20107;-64
2022/05/28 14:09:44;;;;;;;5.97;1.60;;;17.70;83.40;;;;;;7350963;32;20146;-63
2022/05/28 14:13:49;;;;;;;8.23;1.60;;;17.70;83.90;;;;;;7360845;32;20099;-62
2022/05/28 14:17:51;;;;;;;7.65;1.92;;;18.20;82.30;;;;;;7357397;32;20122;-62
2022/05/28 14:21:58;;;;;;;7.32;1.50;;;17.90;78.20;;;;;;7356234;32;20099;-62
2022/05/28 14:26:01;;;;;;;6.37;1.52;;;17.50;75.90;;;;;;7346526;32;20099;-67
2022/05/28 14:30:05;;;;;;;10.15;1.65;;;16.90;84.40;;;;;;7360666;32;20147;-63
2022/05/28 14:34:09;;;;;;;4.55;0.98;;;16.70;90.10;;;;;;7353140;32;20095;-63
2022/05/28 14:38:22;;;;;;;8.15;1.25;;;16.70;87.80;;;;;;7362605;32;20593;-62
2022/05/28 14:42:30;;;;;;;7.45;1.40;;;16.80;87.80;;;;;;7363140;32;20186;-63
2022/05/28 14:46:36;;;;;;;5.82;1.10;;;17.30;84.70;;;;;;7371629;32;20647;-63
2022/05/28 14:50:44;;;;;;;5.50;1.03;;;17.60;85.20;;;;;;7351591;32;20682;-62
2022/05/28 14:54:57;;;;;;;7.70;1.60;;;17.50;81.10;;;;;;7371088;32;20122;-62
2022/05/28 14:58:59;;;;;;;7.60;1.70;;;17.20;79.60;;;;;;7365730;32;20377;-61
2022/05/28 15:03:12;;;;;;;5.60;1.20;;;17.00;85.60;;;;;;7360853;32;20484;-64
2022/05/28 15:07:26;;;;;;;8.48;1.30;;;17.00;81.60;;;;;;7360879;32;20246;-64
2022/05/28 15:11:30;;;;;;;7.18;1.17;;;17.00;81.40;;;;;;7357201;32;20154;-63
2022/05/28 15:15:32;;;;;;;4.37;1.02;;;17.40;78.10;;;;;;7359869;32;20220;-63
2022/05/28 15:19:34;;;;;;;4.65;1.23;;;17.30;80.80;;;;;;7371146;32;20621;-63
2022/05/28 15:23:36;;;;;;;5.35;0.90;;;17.00;79.60;;;;;;7366773;32;20336;-63
2022/05/28 15:27:38;;;;;;;3.22;0.98;;;17.10;79.70;;;;;;7371557;32;20092;-65
2022/05/28 15:31:40;;;;;;;6.47;1.25;;;17.10;80.40;;;;;;7363349;32;20102;-63
2022/05/28 15:40:03;;;;;;;8.93;4.95;;;16.90;78.80;;;;;;7363663;32;20107;-62
2022/05/28 15:44:09;;;;;;;13.60;6.65;;;16.40;79.90;;;;;;7370077;32;20268;-63
2022/05/28 15:48:11;;;;;;;8.45;2.00;;;16.10;77.90;;;;;;7350674;32;20125;-63
2022/05/28 15:52:13;;;;;;;8.32;3.17;;;15.90;81.60;;;;;;7366347;32;22083;-63
2022/05/28 15:56:16;;;;;;;8.00;2.47;;;15.90;79.90;;;;;;7362977;32;20139;-63
2022/05/28 16:00:19;;;;;;;6.70;3.22;;;15.80;79.50;;;;;;7367786;32;20095;-63
2022/05/28 16:04:28;;;;;;;5.78;1.83;;;15.90;78.10;;;;;;7357902;32;20622;-63
2022/05/28 16:12:31;;;;;;;3.33;0.88;;;16.30;77.60;;;;;;7348354;32;20600;-63
2022/05/28 16:16:34;;;;;;;3.08;0.90;;;16.70;76.60;;;;;;7351475;32;20142;-63
2022/05/28 16:20:38;;;;;;;5.78;1.02;;;16.60;75.90;;;;;;7350408;32;20897;-62
2022/05/28 16:24:39;;;;;;;2.78;0.90;;;16.30;75.50;;;;;;7364277;32;20222;-63
2022/05/28 16:28:43;;;;;;;5.43;1.10;;;16.20;77.20;;;;;;7366489;32;20182;-63
2022/05/28 16:32:45;;;;;;;6.00;1.30;;;15.80;82.00;;;;;;7369407;32;20518;-63
2022/05/28 16:36:46;;;;;;;5.30;1.17;;;15.80;85.30;;;;;;7358755;32;20428;-65
2022/05/28 16:40:48;;;;;;;4.00;1.20;;;16.00;82.80;;;;;;7359228;32;20229;-63
2022/05/28 16:44:50;;;;;;;6.47;1.20;;;16.00;83.80;;;;;;7352786;32;20106;-63
2022/05/28 16:48:51;;;;;;;4.10;1.10;;;15.70;86.30;;;;;;7332514;32;20398;-64
2022/05/28 16:52:53;;;;;;;7.05;1.23;;;15.80;86.00;;;;;;7339578;32;20922;-61
2022/05/28 16:56:55;;;;;;;8.05;1.65;;;15.80;85.60;;;;;;7353646;32;20245;-64
2022/05/28 17:00:57;;;;;;;5.70;1.00;;;15.70;87.90;;;;;;7351957;32;20802;-63
2022/05/28 17:04:59;;;;;;;3.67;0.90;;;15.60;85.30;;;;;;7359154;32;20260;-63
2022/05/28 17:09:02;;;;;;;5.18;1.00;;;15.30;84.10;;;;;;7340804;32;20186;-63
2022/05/28 17:13:04;;;;;;;5.07;1.30;;;15.10;86.10;;;;;;7356087;32;20170;-63
2022/05/28 17:17:06;;;;;;;9.63;1.30;;;15.00;87.00;;;;;;7349852;32;20212;-63
2022/05/28 17:21:11;;;;;;;4.85;1.10;;;15.20;84.10;;;;;;7352954;32;20103;-64
2022/05/28 17:25:20;;;;;;;3.80;1.10;;;15.20;86.50;;;;;;7340800;32;20817;-63
2022/05/28 17:29:22;;;;;;;6.72;1.42;;;15.10;86.70;;;;;;7358983;32;20171;-62
2022/05/28 17:33:26;;;;;;;3.33;1.10;;;15.10;84.50;;;;;;7352948;32;20135;-64
2022/05/28 17:37:31;;;;;;;5.18;1.60;;;15.20;86.40;;;;;;7340673;32;20228;-63
2022/05/28 17:41:33;;;;;;;7.30;1.42;;;15.10;89.40;;;;;;7321678;32;20280;-63
2022/05/28 17:45:34;;;;;;;9.77;1.35;;;14.90;90.30;;;;;;7318973;32;20237;-61
2022/05/28 17:49:36;;;;;;;4.70;0.98;;;14.60;91.80;;;;;;7337568;32;20221;-62
2022/05/28 17:53:38;;;;;;;11.77;1.65;;;14.40;91.60;;;;;;7348030;32;20105;-60
2022/05/28 17:57:40;;;;;;;5.05;1.23;;;14.30;93.10;;;;;;7363044;32;20239;-61
2022/05/28 18:01:44;;;;;;;5.90;1.05;;;14.30;93.00;;;;;;7362721;32;20121;-61
2022/05/28 18:05:46;;;;;;;6.35;1.50;;;14.40;94.90;;;;;;7340742;32;20337;-63
2022/05/28 18:09:48;;;;;;;12.50;3.78;;;14.40;94.60;;;;;;7344270;32;20285;-60
2022/05/28 18:13:50;;;;;;;9.63;1.30;;;14.30;94.90;;;;;;7324527;32;20268;-63
2022/05/28 18:17:56;;;;;;;9.13;1.98;;;14.30;93.80;;;;;;7323172;32;20194;-62
2022/05/28 18:21:58;;;;;;;6.37;1.08;;;14.10;92.20;;;;;;7318068;32;20397;-61
2022/05/28 18:26:01;;;;;;;6.40;1.10;;;13.90;90.70;;;;;;7321557;32;20406;-62
2022/05/28 18:30:05;;;;;;;9.30;1.40;;;13.70;91.50;;;;;;7330517;32;20240;-62
2022/05/28 18:34:07;;;;;;;6.70;1.20;;;13.70;91.40;;;;;;7347550;32;20281;-62
2022/05/28 18:38:12;;;;;;;5.55;1.00;;;13.60;91.90;;;;;;7344604;32;20274;-63
2022/05/28 18:42:16;;;;;;;6.32;1.67;;;13.50;91.50;;;;;;7345299;32;20510;-62
2022/05/28 18:46:17;;;;;;;4.68;1.10;;;13.40;92.30;;;;;;7339518;32;20186;-64
2022/05/28 18:50:26;;;;;;;6.60;1.40;;;13.30;92.40;;;;;;7320849;32;20488;-64
2022/05/28 18:54:28;;;;;;;5.32;1.40;;;13.20;92.20;;;;;;7338407;32;20321;-63
2022/05/28 18:58:29;;;;;;;6.82;2.28;;;13.20;93.10;;;;;;7349209;32;20249;-66
2022/05/28 19:02:33;;;;;;;4.32;1.15;;;13.00;94.80;;;;;;7354531;32;20276;-67
2022/05/28 19:06:40;;;;;;;6.97;1.05;;;12.90;96.70;;;;;;7356402;32;20238;-67
2022/05/28 19:10:43;;;;;;;5.62;1.42;;;12.70;97.90;;;;;;7354157;32;20278;-67
2022/05/28 19:14:50;;;;;;;7.53;1.17;;;12.60;99.00;;;;;;7343193;32;20479;-65
2022/05/28 19:18:52;;;;;;;8.52;1.60;;;12.50;99.90;;;;;;7351256;32;20186;-66
2022/05/28 19:22:53;;;;;;;6.85;1.10;;;12.30;99.90;;;;;;7328955;32;21023;-66
2022/05/28 19:27:13;;;;;;;4.37;0.93;;;12.20;99.90;;;;;;7340562;32;20174;-66
2022/05/28 19:31:15;;;;;;;11.52;1.52;;;12.10;99.90;;;;;;7346398;32;20186;-67
2022/05/28 19:35:19;;;;;;;9.95;1.10;;;12.00;99.90;;;;;;7347503;32;20487;-65
2022/05/28 19:39:21;;;;;;;6.25;1.95;;;12.00;99.90;;;;;;7347279;32;20227;-66
2022/05/28 19:43:23;;;;;;;9.65;1.77;;;11.90;99.90;;;;;;7351123;32;20198;-66
2022/05/28 19:47:28;;;;;;;6.82;1.17;;;11.70;99.90;;;;;;7355626;32;20243;-63
2022/05/28 19:51:30;;;;;;;9.27;1.83;;;11.70;99.90;;;;;;7349585;32;20201;-64
2022/05/28 19:55:33;;;;;;;8.45;2.08;;;11.60;99.90;;;;;;7331768;32;21996;-64
2022/05/28 19:59:35;;;;;;;10.82;1.80;;;11.50;99.90;;;;;;7332950;32;21346;-65
2022/05/28 20:03:39;;;;;;;4.97;1.42;;;11.40;99.90;;;;;;7351021;32;20263;-64
2022/05/28 20:07:41;;;;;;;9.43;1.30;;;11.20;99.90;;;;;;7347338;32;20252;-64
2022/05/28 20:11:43;;;;;;;5.37;1.00;;;11.10;99.90;;;;;;7338207;32;20257;-64
2022/05/28 20:15:44;;;;;;;5.28;1.23;;;11.00;99.90;;;;;;7335448;32;20222;-64
2022/05/28 20:19:46;;;;;;;8.73;1.30;;;11.00;99.90;;;;;;7328128;32;20218;-64
2022/05/28 20:23:50;;;;;;;11.00;1.55;;;10.80;99.90;;;;;;7349604;32;20224;-64
2022/05/28 20:27:51;;;;;;;7.53;1.12;;;10.80;99.90;;;;;;7346811;32;20230;-60
2022/05/28 20:31:53;;;;;;;9.05;1.37;;;10.70;99.90;;;;;;7342416;32;20175;-61
2022/05/28 20:35:56;;;;;;;6.25;1.83;;;10.70;99.90;;;;;;7320956;32;21782;-61
2022/05/28 20:39:57;;;;;;;7.85;1.27;;;10.60;99.90;;;;;;7344891;32;20238;-66
2022/05/28 20:44:00;;;;;;;8.48;1.42;;;10.50;99.90;;;;;;7356581;32;20800;-62
2022/05/28 20:48:06;;;;;;;4.50;1.00;;;10.40;99.90;;;;;;7361159;32;20240;-65
2022/05/28 20:52:24;;;;;;;7.72;1.10;;;10.30;99.90;;;;;;7333715;32;20680;-64
2022/05/28 20:56:26;;;;;;;6.12;1.70;;;10.30;99.90;;;;;;7363003;32;20107;-64
2022/05/28 21:00:31;;;;;;;7.43;1.73;;;10.00;99.90;;;;;;7355757;32;20119;-65
2022/05/28 21:04:33;;;;;;;7.47;1.55;;;10.00;99.90;;;;;;7353906;32;20218;-64
2022/05/28 21:08:35;;;;;;;4.93;1.50;;;9.80;99.90;;;;;;7347561;32;20301;-65
2022/05/28 21:12:39;;;;;;;6.25;1.60;;;9.80;99.90;;;;;;7364010;32;20107;-65
2022/05/28 21:16:50;;;;;;;7.32;1.92;;;9.70;99.90;;;;;;7362883;32;20136;-66
2022/05/28 21:20:52;;;;;;;11.15;3.03;;;9.60;99.90;;;;;;7358625;32;20275;-65
2022/05/28 21:24:54;;;;;;;10.68;2.45;;;9.40;99.90;;;;;;7323049;32;22242;-63
2022/05/28 21:33:16;;;;;;;14.15;4.80;;;9.00;99.90;;;;;;7342508;32;20292;-66
2022/05/28 21:37:19;;;;;;;8.20;2.25;;;8.90;99.90;;;;;;7349921;32;20444;-64